Time;durP1;ratioP1;P1;durP2;ratioP2;P2;SDS_P1;SDS_P2;PMS_P1;PMS_P2;Temp;Humidity;BMP_temperature;BMP_pressure;BME280_temperature;BME280_humidity;BME280_pressure;Samples;Min_cycle;Max_cycle;Signal;HPM_P1;HPM_P2
2021/12/17 03:46:21;;;;;;;12.85;9.55;;;7.50;98.50;;;;;;5234400;24;20069;-82
2021/12/17 03:48:50;;;;;;;15.30;9.95;;;7.50;98.40;;;;;;4685984;30;20101;-82
2021/12/17 03:51:18;;;;;;;14.77;10.48;;;7.50;98.40;;;;;;4688437;30;20293;-82
2021/12/17 03:53:54;;;;;;;15.30;10.82;;;7.50;98.40;;;;;;4691160;30;20041;-82
2021/12/17 03:56:21;;;;;;;15.18;10.73;;;7.50;98.30;;;;;;4697527;30;20095;-82
2021/12/17 03:58:52;;;;;;;16.27;11.52;;;7.50;98.50;;;;;;4700148;30;20352;-82
2021/12/17 04:01:19;;;;;;;15.93;10.98;;;7.40;98.40;;;;;;4690509;30;20037;-82
2021/12/17 04:03:46;;;;;;;15.90;11.30;;;7.40;98.50;;;;;;4684415;30;20042;-81
2021/12/17 04:06:22;;;;;;;15.32;10.90;;;7.40;98.50;;;;;;4673766;30;20049;-81
2021/12/17 04:09:11;;;;;;;17.45;12.40;;;7.40;98.50;;;;;;4688559;30;20057;-82
2021/12/17 04:11:53;;;;;;;18.35;11.95;;;7.40;98.60;;;;;;4681440;30;20042;-82
2021/12/17 04:14:33;;;;;;;16.40;11.60;;;7.40;98.50;;;;;;4680447;30;20061;-82
2021/12/17 04:17:04;;;;;;;16.00;11.25;;;7.30;98.50;;;;;;4699508;30;20029;-82
2021/12/17 04:19:30;;;;;;;14.25;10.20;;;7.30;98.50;;;;;;4679503;30;20038;-82
2021/12/17 04:21:59;;;;;;;17.15;10.90;;;7.30;98.40;;;;;;4680172;30;20388;-82
2021/12/17 04:24:24;;;;;;;14.45;10.05;;;7.30;98.30;;;;;;4710980;30;20049;-81
2021/12/17 04:26:51;;;;;;;16.48;9.85;;;7.30;98.20;;;;;;4680864;30;20034;-81
2021/12/17 04:29:22;;;;;;;15.38;11.13;;;7.30;98.10;;;;;;4673596;30;20112;-82
2021/12/17 04:31:53;;;;;;;15.07;10.52;;;7.30;98.10;;;;;;4691301;30;20033;-83
2021/12/17 04:34:21;;;;;;;17.45;11.45;;;7.30;98.20;;;;;;4682936;30;20048;-81
2021/12/17 04:36:50;;;;;;;17.63;11.00;;;7.30;98.20;;;;;;4696305;30;20068;-81
2021/12/17 04:39:23;;;;;;;19.77;12.05;;;7.30;98.20;;;;;;4683745;30;20034;-82
2021/12/17 04:42:08;;;;;;;14.75;9.68;;;7.30;98.20;;;;;;4689726;30;20077;-81
2021/12/17 04:44:37;;;;;;;15.18;10.13;;;7.30;98.00;;;;;;4693242;30;20042;-82
2021/12/17 04:58:05;;;;;;;13.00;9.07;;;7.30;97.80;;;;;;4693521;30;20260;-82
2021/12/17 05:00:32;;;;;;;14.07;9.98;;;7.30;97.80;;;;;;4693013;30;20277;-82
2021/12/17 05:03:08;;;;;;;14.82;9.88;;;7.30;97.90;;;;;;4667548;30;20037;-82
2021/12/17 05:05:36;;;;;;;14.20;10.80;;;7.30;97.90;;;;;;4696043;30;20322;-82
2021/12/17 05:08:15;;;;;;;13.52;10.00;;;7.30;98.00;;;;;;4692787;30;20052;-82
2021/12/17 05:11:02;;;;;;;17.50;10.45;;;7.20;97.90;;;;;;4679353;30;20077;-82
2021/12/17 05:19:11;;;;;;;14.60;10.70;;;7.20;98.00;;;;;;4695006;30;20040;-82
2021/12/17 05:21:38;;;;;;;16.13;11.13;;;7.20;98.00;;;;;;4689853;30;20156;-81
2021/12/17 05:24:04;;;;;;;17.95;12.65;;;7.10;98.10;;;;;;4681344;30;20277;-82
2021/12/17 05:26:31;;;;;;;16.58;11.18;;;7.10;98.20;;;;;;4681462;30;20385;-82
2021/12/17 05:28:58;;;;;;;;;;;7.10;98.20;;;;;;4696137;30;20048;-82
2021/12/17 05:31:29;;;;;;;17.17;12.98;;;7.10;98.30;;;;;;4694865;30;19938;-82
2021/12/17 05:33:56;;;;;;;20.33;13.23;;;7.00;98.40;;;;;;4678343;30;20034;-82
2021/12/17 05:36:27;;;;;;;18.70;12.77;;;7.10;98.50;;;;;;4692892;30;20022;-81
2021/12/17 05:39:02;;;;;;;20.70;14.20;;;7.00;98.60;;;;;;4676380;30;20033;-82
2021/12/17 05:41:31;;;;;;;18.42;13.88;;;7.00;98.70;;;;;;4695595;30;20045;-81
2021/12/17 05:44:09;;;;;;;20.05;14.50;;;7.00;98.90;;;;;;4690951;30;20033;-81
2021/12/17 05:46:49;;;;;;;23.98;15.52;;;7.00;98.90;;;;;;4686074;30;20108;-81
2021/12/17 05:49:24;;;;;;;23.90;15.90;;;6.90;99.10;;;;;;4694580;30;20037;-81
2021/12/17 05:51:54;;;;;;;23.90;15.93;;;6.90;99.10;;;;;;4703363;30;20513;-82
2021/12/17 05:54:20;;;;;;;21.70;15.57;;;6.90;99.30;;;;;;4694987;30;20040;-81
2021/12/17 05:56:46;;;;;;;23.37;15.33;;;6.90;99.30;;;;;;4690987;30;20108;-82
2021/12/17 05:59:13;;;;;;;22.13;15.75;;;7.00;99.40;;;;;;4693615;30;20065;-81
2021/12/17 06:01:39;;;;;;;22.42;15.15;;;7.00;99.20;;;;;;4694933;30;20033;-82
2021/12/17 06:04:05;;;;;;;24.27;15.40;;;7.00;99.10;;;;;;4690865;30;20268;-81
2021/12/17 06:06:47;;;;;;;23.48;15.75;;;7.00;99.10;;;;;;4697078;30;20038;-82
2021/12/17 06:09:13;;;;;;;19.50;14.07;;;7.00;99.10;;;;;;4692014;30;20036;-82
2021/12/17 06:11:40;;;;;;;23.58;15.45;;;7.00;99.10;;;;;;4678843;30;20040;-82
2021/12/17 06:14:08;;;;;;;23.77;15.38;;;7.00;99.20;;;;;;4656982;30;20039;-82
2021/12/17 06:16:36;;;;;;;23.65;15.57;;;7.00;99.20;;;;;;4687564;30;20219;-81
2021/12/17 06:19:09;;;;;;;22.98;15.43;;;7.00;99.10;;;;;;4697085;30;20311;-82
2021/12/17 06:21:37;;;;;;;23.13;15.55;;;7.00;99.20;;;;;;4694603;30;20332;-82
2021/12/17 06:24:03;;;;;;;20.98;14.85;;;7.00;99.20;;;;;;4690296;30;20037;-81
2021/12/17 06:26:30;;;;;;;22.05;15.20;;;7.00;99.20;;;;;;4680030;30;20043;-82
2021/12/17 06:28:56;;;;;;;22.25;14.50;;;7.00;99.10;;;;;;4693515;30;20045;-82
2021/12/17 06:31:23;;;;;;;19.75;13.63;;;7.10;99.00;;;;;;4686913;30;20340;-81
2021/12/17 06:33:51;;;;;;;20.63;13.85;;;7.10;99.00;;;;;;4681783;30;20068;-81
2021/12/17 06:36:17;;;;;;;19.73;13.55;;;7.20;98.80;;;;;;4695191;30;20229;-82
2021/12/17 06:38:44;;;;;;;22.33;14.82;;;7.20;98.70;;;;;;4669759;30;20040;-83
2021/12/17 06:41:09;;;;;;;20.48;13.93;;;7.20;98.70;;;;;;4700608;30;20041;-83
2021/12/17 06:43:40;;;;;;;18.05;12.93;;;7.20;98.60;;;;;;4690965;30;20085;-83
2021/12/17 06:46:25;;;;;;;18.85;13.25;;;7.20;98.50;;;;;;4679162;30;20320;-83
2021/12/17 06:49:09;;;;;;;23.27;12.68;;;7.30;98.50;;;;;;4697564;30;20056;-82
2021/12/17 07:01:03;;;;;;;19.25;11.68;;;7.40;98.10;;;;;;4643824;30;20035;-82
2021/12/17 07:30:26;;;;;;;15.30;11.00;;;7.60;96.50;;;;;;4572168;31;20262;-83
2021/12/17 07:32:53;;;;;;;19.30;10.63;;;7.60;96.60;;;;;;4553379;31;20071;-83
2021/12/17 07:35:38;;;;;;;18.15;10.23;;;7.60;96.10;;;;;;4627833;31;20058;-83
2021/12/17 07:40:50;;;;;;;16.63;10.10;;;7.70;96.10;;;;;;4612562;31;20094;-83
2021/12/17 07:43:26;;;;;;;18.95;11.15;;;7.70;96.00;;;;;;4637453;30;20046;-83
2021/12/17 07:45:52;;;;;;;19.08;10.85;;;7.80;95.70;;;;;;4696844;30;20045;-83
2021/12/17 07:48:26;;;;;;;16.48;10.68;;;7.70;95.50;;;;;;4691480;30;20038;-83
2021/12/17 07:55:11;;;;;;;22.38;11.73;;;7.80;95.30;;;;;;4639130;30;20128;-82
2021/12/17 07:57:38;;;;;;;18.60;11.10;;;7.90;95.40;;;;;;4595257;30;20031;-82
2021/12/17 08:00:06;;;;;;;17.10;10.32;;;7.90;95.20;;;;;;4640871;30;20042;-82
2021/12/17 08:02:41;;;;;;;18.90;11.30;;;8.00;95.20;;;;;;4638406;30;20027;-82
2021/12/17 08:05:27;;;;;;;19.90;11.17;;;8.00;94.70;;;;;;4634315;30;20090;-82
2021/12/17 08:07:53;;;;;;;22.13;10.90;;;8.10;94.90;;;;;;4621523;31;20039;-82
2021/12/17 08:10:18;;;;;;;20.75;11.65;;;8.10;94.60;;;;;;4610329;30;20311;-83
2021/12/17 08:12:44;;;;;;;21.42;11.05;;;8.10;94.30;;;;;;4621105;30;20038;-83
2021/12/17 08:15:12;;;;;;;19.20;10.38;;;8.10;94.20;;;;;;4625460;30;20053;-82
2021/12/17 08:31:19;;;;;;;18.58;9.57;;;8.30;93.80;;;;;;4620232;31;20058;-82
2021/12/17 08:33:46;;;;;;;19.95;10.73;;;8.40;93.60;;;;;;4619738;31;20251;-82
2021/12/17 08:36:12;;;;;;;16.53;9.73;;;8.50;93.50;;;;;;4622715;31;20038;-82
2021/12/17 08:38:39;;;;;;;18.92;9.15;;;8.50;93.30;;;;;;4619890;31;20044;-81
2021/12/17 08:41:27;;;;;;;22.05;9.82;;;8.50;93.00;;;;;;4615593;31;20051;-82
2021/12/17 08:43:53;;;;;;;17.65;9.45;;;8.60;93.00;;;;;;4616492;31;20051;-82
2021/12/17 08:46:20;;;;;;;22.08;9.88;;;8.60;92.80;;;;;;4590763;31;20111;-82
2021/12/17 08:49:01;;;;;;;19.83;9.18;;;8.60;92.70;;;;;;4599350;31;20130;-82
2021/12/17 08:51:45;;;;;;;16.50;8.80;;;8.60;92.80;;;;;;4602971;31;20094;-82
2021/12/17 08:54:11;;;;;;;14.07;8.70;;;8.50;92.20;;;;;;4612640;31;20031;-82
2021/12/17 08:56:45;;;;;;;18.33;9.23;;;8.40;92.30;;;;;;4612602;31;20044;-82
2021/12/17 08:59:16;;;;;;;18.83;8.80;;;8.40;92.50;;;;;;4612625;31;20043;-82
2021/12/17 09:02:09;;;;;;;18.15;8.70;;;8.30;92.40;;;;;;4567755;31;20049;-82
2021/12/17 09:04:39;;;;;;;16.38;8.77;;;8.40;92.60;;;;;;4570212;31;20337;-82
2021/12/17 09:07:08;;;;;;;14.25;9.07;;;8.40;92.40;;;;;;4571037;31;20053;-82
2021/12/17 09:09:34;;;;;;;16.35;8.88;;;8.50;92.70;;;;;;4575440;31;20077;-82
2021/12/17 09:12:10;;;;;;;16.55;8.80;;;8.50;92.00;;;;;;4594259;31;20052;-82
2021/12/17 09:14:39;;;;;;;18.10;8.73;;;8.40;92.20;;;;;;4566584;31;20085;-81
2021/12/17 09:17:35;;;;;;;18.40;9.38;;;8.40;92.40;;;;;;4569360;31;20057;-82
2021/12/17 09:20:06;;;;;;;24.25;8.88;;;8.40;92.20;;;;;;4589862;31;20305;-82
2021/12/17 09:22:32;;;;;;;19.17;9.30;;;8.40;92.50;;;;;;4549570;31;20423;-81
2021/12/17 09:25:03;;;;;;;21.70;9.90;;;8.40;92.40;;;;;;4577159;31;20523;-81
2021/12/17 09:27:50;;;;;;;18.27;10.15;;;8.40;92.60;;;;;;4578060;31;20045;-82
2021/12/17 09:30:28;;;;;;;18.55;9.35;;;8.40;92.70;;;;;;4563159;31;20041;-82
2021/12/17 09:32:54;;;;;;;17.27;10.48;;;8.40;92.80;;;;;;4576351;31;20059;-82
2021/12/17 09:35:21;;;;;;;18.60;9.88;;;8.50;92.70;;;;;;4574099;31;20048;-82
2021/12/17 09:37:47;;;;;;;20.98;9.35;;;8.50;92.40;;;;;;4563740;30;20148;-82
2021/12/17 09:40:14;;;;;;;15.85;9.27;;;8.50;92.20;;;;;;4638408;30;20338;-82
2021/12/17 09:42:45;;;;;;;20.55;10.23;;;8.40;92.40;;;;;;4660392;30;20053;-82
2021/12/17 09:45:13;;;;;;;17.20;9.77;;;8.50;92.30;;;;;;4673678;30;20048;-81
2021/12/17 09:47:40;;;;;;;19.50;9.52;;;8.40;92.30;;;;;;4654373;30;20098;-81
2021/12/17 09:50:08;;;;;;;;;;;8.40;92.30;;;;;;4659290;30;20046;-81
2021/12/17 09:52:34;;;;;;;15.98;8.05;;;8.40;92.60;;;;;;4674622;30;20296;-82
2021/12/17 09:55:00;;;;;;;17.00;8.93;;;8.40;92.00;;;;;;4663594;30;20053;-81
2021/12/17 09:57:26;;;;;;;16.73;9.10;;;8.40;91.90;;;;;;4689192;30;20053;-82
2021/12/17 09:59:53;;;;;;;16.17;8.55;;;8.50;92.00;;;;;;4678636;30;20302;-82
2021/12/17 10:02:20;;;;;;;17.90;8.93;;;8.50;91.80;;;;;;4671303;30;20300;-82
2021/12/17 10:04:46;;;;;;;;;;;8.40;91.50;;;;;;4701836;30;20038;-82
2021/12/17 10:07:32;;;;;;;17.03;8.70;;;8.40;91.70;;;;;;4702098;30;19919;-81
2021/12/17 10:10:00;;;;;;;17.10;8.60;;;8.50;91.60;;;;;;4690277;30;20037;-81
2021/12/17 10:12:30;;;;;;;19.52;8.75;;;8.60;91.80;;;;;;4698332;30;20038;-82
2021/12/17 10:15:04;;;;;;;21.08;8.52;;;8.60;91.60;;;;;;4697649;30;20037;-82
2021/12/17 10:17:31;;;;;;;18.35;8.07;;;8.60;91.40;;;;;;4696295;30;20026;-82
2021/12/17 10:19:56;;;;;;;18.73;8.93;;;8.70;91.00;;;;;;4689953;30;20095;-82
2021/12/17 10:22:23;;;;;;;17.70;9.50;;;8.70;91.10;;;;;;4683571;30;20042;-82
2021/12/17 10:25:03;;;;;;;22.08;10.05;;;8.70;91.30;;;;;;4685585;30;20273;-82
2021/12/17 10:27:31;;;;;;;22.40;9.18;;;8.80;91.10;;;;;;4670927;30;20348;-81
2021/12/17 10:29:58;;;;;;;22.33;10.82;;;8.80;90.80;;;;;;4662868;30;20042;-82
2021/12/17 10:32:26;;;;;;;22.92;11.80;;;8.80;90.80;;;;;;4657343;30;20042;-82
2021/12/17 10:35:06;;;;;;;36.85;15.48;;;8.80;90.80;;;;;;4684914;30;20207;-82
2021/12/17 10:37:34;;;;;;;20.40;9.98;;;8.80;90.60;;;;;;4677988;30;20060;-82
2021/12/17 10:39:59;;;;;;;;;;;8.90;90.80;;;;;;4697794;30;20042;-82
2021/12/17 10:46:44;;;;;;;14.85;8.93;;;9.10;90.30;;;;;;4656847;30;20093;-82
2021/12/17 10:49:17;;;;;;;20.63;9.80;;;9.10;90.20;;;;;;4641614;30;20061;-82
2021/12/17 10:51:46;;;;;;;21.17;9.15;;;9.20;89.60;;;;;;4628212;30;20045;-81
2021/12/17 10:54:18;;;;;;;16.00;8.88;;;9.20;89.10;;;;;;4660833;30;20039;-82
2021/12/17 10:56:52;;;;;;;24.58;9.20;;;9.30;89.30;;;;;;4664744;30;20035;-82
2021/12/17 10:59:19;;;;;;;21.88;9.45;;;9.30;88.40;;;;;;4653074;30;20047;-83
2021/12/17 11:02:06;;;;;;;17.85;9.38;;;9.30;89.10;;;;;;4640871;30;20121;-82
2021/12/17 11:04:34;;;;;;;18.17;9.18;;;9.20;88.40;;;;;;4650074;30;20038;-81
2021/12/17 11:07:05;;;;;;;23.50;9.90;;;9.10;89.00;;;;;;4649921;30;20329;-82
2021/12/17 11:09:34;;;;;;;14.90;8.52;;;9.20;89.10;;;;;;4641706;30;20046;-82
2021/12/17 11:12:06;;;;;;;19.83;9.50;;;9.20;88.60;;;;;;4641872;30;20406;-81
2021/12/17 11:14:33;;;;;;;19.65;8.43;;;9.30;88.40;;;;;;4643931;30;20047;-82
2021/12/17 11:16:58;;;;;;;18.48;9.60;;;9.20;87.80;;;;;;4629519;30;20035;-82
2021/12/17 11:19:24;;;;;;;17.73;8.88;;;9.10;88.10;;;;;;4645435;30;20259;-82
2021/12/17 11:21:50;;;;;;;27.20;9.68;;;9.00;88.10;;;;;;4676010;30;20053;-82
2021/12/17 11:24:17;;;;;;;18.30;8.93;;;9.00;88.50;;;;;;4699246;30;20273;-82
2021/12/17 11:26:44;;;;;;;22.23;8.90;;;9.00;89.00;;;;;;4689338;30;20046;-82
2021/12/17 11:29:10;;;;;;;;;;;9.00;89.00;;;;;;4698918;30;20057;-82
2021/12/17 11:31:37;;;;;;;18.83;8.87;;;9.10;89.00;;;;;;4697451;30;19965;-82
2021/12/17 11:34:04;;;;;;;19.15;8.90;;;9.00;88.90;;;;;;4666519;30;20234;-82
2021/12/17 11:36:29;;;;;;;22.17;9.88;;;9.00;88.70;;;;;;4665980;30;20113;-82
2021/12/17 11:39:10;;;;;;;25.70;10.32;;;9.00;88.20;;;;;;4690374;30;20093;-82
2021/12/17 11:41:47;;;;;;;17.42;9.18;;;9.00;88.30;;;;;;4696272;30;20038;-82
2021/12/17 11:44:13;;;;;;;;;;;9.00;89.00;;;;;;4696185;30;20096;-82
2021/12/17 11:46:39;;;;;;;18.10;9.20;;;9.00;88.50;;;;;;4672776;30;19927;-81
2021/12/17 11:49:15;;;;;;;18.27;8.38;;;9.00;89.00;;;;;;4692929;30;20091;-82
2021/12/17 11:51:41;;;;;;;23.80;9.15;;;9.00;89.30;;;;;;4702615;30;20038;-82
2021/12/17 11:54:15;;;;;;;23.08;10.00;;;8.90;89.80;;;;;;4691464;30;20038;-82
2021/12/17 11:56:53;;;;;;;20.27;8.80;;;8.90;89.10;;;;;;4703659;30;20050;-82
2021/12/17 11:59:24;;;;;;;18.70;9.27;;;8.90;88.60;;;;;;4710540;30;20037;-82
2021/12/17 12:02:19;;;;;;;21.92;8.93;;;9.00;89.00;;;;;;4695218;30;20161;-82
2021/12/17 12:04:51;;;;;;;22.30;9.25;;;9.10;88.30;;;;;;4710503;30;20048;-82
2021/12/17 12:07:33;;;;;;;15.98;7.93;;;9.30;88.40;;;;;;4710079;30;20044;-82
2021/12/17 12:09:59;;;;;;;19.30;9.02;;;9.20;87.60;;;;;;4704507;30;20182;-82
2021/12/17 12:12:29;;;;;;;19.55;9.20;;;9.30;87.40;;;;;;4679220;30;20349;-82
2021/12/17 12:15:22;;;;;;;18.80;8.77;;;9.20;87.30;;;;;;4693636;30;20041;-82
2021/12/17 12:17:57;;;;;;;15.43;8.82;;;9.20;87.70;;;;;;4698486;30;20108;-82
2021/12/17 12:20:47;;;;;;;17.98;9.75;;;9.20;87.20;;;;;;4693298;30;20233;-82
2021/12/17 12:23:36;;;;;;;20.98;10.27;;;9.20;87.70;;;;;;4691531;30;20040;-82
2021/12/17 12:26:02;;;;;;;20.20;9.70;;;9.20;88.30;;;;;;4710863;30;20057;-82
2021/12/17 12:28:50;;;;;;;19.98;9.00;;;9.20;88.60;;;;;;4700129;30;20274;-82
2021/12/17 12:31:26;;;;;;;14.95;9.18;;;9.10;88.00;;;;;;4678419;30;20215;-82
2021/12/17 12:34:10;;;;;;;19.95;8.93;;;9.20;88.90;;;;;;4692999;30;20029;-82
2021/12/17 12:36:54;;;;;;;17.25;9.48;;;9.30;88.50;;;;;;4679205;30;20025;-82
2021/12/17 12:39:42;;;;;;;21.60;9.30;;;9.20;88.00;;;;;;4697559;30;20048;-82
2021/12/17 12:42:41;;;;;;;20.98;9.75;;;9.20;87.90;;;;;;4694578;30;20044;-82
2021/12/17 12:45:10;;;;;;;16.02;8.88;;;9.10;88.20;;;;;;4644038;30;20051;-82
2021/12/17 12:47:35;;;;;;;18.77;9.20;;;9.10;88.50;;;;;;4657195;30;20371;-82
2021/12/17 12:50:06;;;;;;;20.35;9.25;;;9.10;88.70;;;;;;4629305;30;20039;-82
2021/12/17 12:52:32;;;;;;;19.13;8.77;;;9.10;88.20;;;;;;4657582;30;20096;-82
2021/12/17 12:55:16;;;;;;;17.65;9.13;;;9.10;88.70;;;;;;4626589;31;20069;-82
2021/12/17 12:57:46;;;;;;;22.00;9.73;;;9.10;88.50;;;;;;4625901;30;20045;-82
2021/12/17 13:00:18;;;;;;;16.83;8.20;;;9.10;88.20;;;;;;4636251;30;20071;-82
2021/12/17 13:02:46;;;;;;;24.40;9.00;;;9.00;88.20;;;;;;4627480;30;20074;-82
2021/12/17 13:05:12;;;;;;;17.33;8.77;;;9.00;88.50;;;;;;4625059;30;20263;-82
2021/12/17 13:07:38;;;;;;;18.25;9.02;;;9.00;88.70;;;;;;4611157;30;20042;-82
2021/12/17 13:10:18;;;;;;;19.73;9.20;;;8.90;88.90;;;;;;4617913;30;20354;-81
2021/12/17 13:26:36;;;;;;;16.73;9.25;;;8.80;89.40;;;;;;4698751;30;20049;-82
2021/12/17 13:29:15;;;;;;;22.33;9.32;;;8.80;89.40;;;;;;4677194;30;20050;-82
2021/12/17 13:31:51;;;;;;;25.30;9.70;;;8.90;89.70;;;;;;4667124;30;20132;-82
2021/12/17 13:34:31;;;;;;;20.40;10.00;;;8.90;89.40;;;;;;4668596;30;20039;-81
2021/12/17 13:37:01;;;;;;;22.08;10.00;;;8.90;89.50;;;;;;4683627;30;20169;-81
2021/12/17 13:39:34;;;;;;;19.35;9.43;;;8.90;88.90;;;;;;4675205;30;20051;-81
2021/12/17 13:42:01;;;;;;;20.00;8.88;;;8.80;89.00;;;;;;4676726;30;20054;-81
2021/12/17 13:44:36;;;;;;;20.58;9.13;;;8.90;89.40;;;;;;4673146;30;20077;-82
2021/12/17 13:47:18;;;;;;;16.05;8.55;;;9.00;89.10;;;;;;4650295;30;20058;-81
2021/12/17 13:49:58;;;;;;;19.10;9.82;;;9.00;88.70;;;;;;4648936;30;20042;-82
2021/12/17 13:52:27;;;;;;;23.77;10.02;;;9.00;89.10;;;;;;4675151;30;20045;-82
2021/12/17 13:54:55;;;;;;;26.08;10.60;;;9.00;88.90;;;;;;4665122;30;20038;-82
2021/12/17 13:57:24;;;;;;;17.88;8.80;;;9.10;89.30;;;;;;4672938;30;20101;-82
2021/12/17 13:59:51;;;;;;;21.27;9.82;;;9.10;89.00;;;;;;4666638;30;20042;-82
2021/12/17 14:02:19;;;;;;;19.05;8.70;;;9.10;88.90;;;;;;4696187;30;20064;-82
2021/12/17 14:05:07;;;;;;;18.48;9.35;;;9.20;88.60;;;;;;4710708;30;20033;-82
2021/12/17 14:07:34;;;;;;;21.30;9.40;;;9.20;88.30;;;;;;4680497;30;20092;-82
2021/12/17 14:10:09;;;;;;;18.90;8.68;;;9.30;88.20;;;;;;4694827;30;20102;-82
2021/12/17 14:12:39;;;;;;;18.00;9.15;;;9.30;88.20;;;;;;4691840;30;20109;-82
2021/12/17 14:15:13;;;;;;;16.75;8.40;;;9.40;87.90;;;;;;4697136;30;20104;-82
2021/12/17 14:17:46;;;;;;;18.65;8.75;;;9.30;87.60;;;;;;4698700;30;20036;-82
2021/12/17 14:20:14;;;;;;;15.75;8.35;;;9.20;87.60;;;;;;4699286;30;20080;-82
2021/12/17 14:22:47;;;;;;;18.30;8.55;;;9.10;87.90;;;;;;4680702;30;20079;-82
2021/12/17 14:25:34;;;;;;;18.35;9.38;;;9.10;87.80;;;;;;4694123;30;20205;-82
2021/12/17 14:28:28;;;;;;;18.30;8.70;;;9.10;87.50;;;;;;4717572;30;20253;-82
2021/12/17 14:31:06;;;;;;;19.55;8.73;;;9.00;87.60;;;;;;4713654;30;20076;-82
2021/12/17 14:33:34;;;;;;;18.70;8.35;;;8.90;87.90;;;;;;4682130;30;20218;-82
2021/12/17 14:36:12;;;;;;;23.55;8.55;;;9.00;88.20;;;;;;4696243;30;20037;-81
2021/12/17 14:38:38;;;;;;;;;;;9.00;87.70;;;;;;4697300;30;20141;-81
2021/12/17 14:41:05;;;;;;;16.52;8.18;;;8.90;88.10;;;;;;4690412;30;20218;-81
2021/12/17 14:43:42;;;;;;;19.25;8.30;;;8.90;88.10;;;;;;4682469;30;20056;-82
2021/12/17 14:46:22;;;;;;;23.65;9.43;;;8.90;88.40;;;;;;4692215;30;20076;-82
2021/12/17 15:05:24;;;;;;;19.15;9.15;;;8.70;89.40;;;;;;4688517;30;20121;-82
2021/12/17 15:07:52;;;;;;;27.40;10.60;;;8.70;90.00;;;;;;4687958;30;20120;-82
2021/12/17 15:10:19;;;;;;;20.00;9.57;;;8.60;90.10;;;;;;4687135;30;20114;-81
2021/12/17 15:12:46;;;;;;;22.20;9.65;;;8.50;90.50;;;;;;4673473;30;20038;-81
2021/12/17 15:15:19;;;;;;;17.00;9.13;;;8.50;90.50;;;;;;4678542;30;20041;-82
2021/12/17 15:17:49;;;;;;;21.77;9.23;;;8.50;90.70;;;;;;4695364;30;20497;-82
2021/12/17 15:20:18;;;;;;;20.92;10.07;;;8.40;90.70;;;;;;4691905;30;20076;-82
2021/12/17 15:22:44;;;;;;;28.85;9.88;;;8.40;90.90;;;;;;4676515;30;20044;-82
2021/12/17 15:25:12;;;;;;;24.08;8.82;;;8.40;90.90;;;;;;4686177;30;20065;-82
2021/12/17 15:27:39;;;;;;;25.85;10.73;;;8.40;91.00;;;;;;4689757;30;20428;-82
2021/12/17 15:30:09;;;;;;;23.85;10.25;;;8.30;91.00;;;;;;4685346;30;20113;-82
2021/12/17 15:32:35;;;;;;;18.30;9.38;;;8.30;91.10;;;;;;4687262;30;20363;-82
2021/12/17 15:35:01;;;;;;;19.27;9.05;;;8.30;91.00;;;;;;4697907;30;20448;-82
2021/12/17 15:37:27;;;;;;;26.60;10.63;;;8.30;91.10;;;;;;4690120;30;20045;-82
2021/12/17 15:39:53;;;;;;;22.98;10.07;;;8.30;91.20;;;;;;4694923;30;20033;-82
2021/12/17 15:42:18;;;;;;;19.38;9.55;;;8.30;91.10;;;;;;4688511;30;20312;-82
2021/12/17 15:44:44;;;;;;;24.73;9.63;;;8.30;91.10;;;;;;4691541;30;20329;-82
2021/12/17 15:47:10;;;;;;;20.92;9.60;;;8.30;91.10;;;;;;4680773;30;20052;-82
2021/12/17 15:49:37;;;;;;;24.73;10.85;;;8.20;91.20;;;;;;4691487;30;20034;-82
2021/12/17 15:52:08;;;;;;;14.57;9.23;;;8.20;91.20;;;;;;4690909;30;20046;-82
2021/12/17 15:54:38;;;;;;;27.02;9.63;;;8.20;91.30;;;;;;4698657;30;20050;-82
2021/12/17 15:57:06;;;;;;;21.88;10.13;;;8.30;91.30;;;;;;4700608;30;20318;-82
2021/12/17 15:59:32;;;;;;;24.20;10.63;;;8.30;91.40;;;;;;4684473;30;20624;-82
2021/12/17 16:01:59;;;;;;;24.23;10.07;;;8.30;91.60;;;;;;4671246;30;20072;-82
2021/12/17 16:04:27;;;;;;;23.27;10.65;;;8.20;91.80;;;;;;4692251;30;20326;-83
2021/12/17 16:06:53;;;;;;;21.63;10.75;;;8.10;92.20;;;;;;4679135;30;20050;-83
2021/12/17 16:10:02;;;;;;;23.33;10.20;;;8.10;92.30;;;;;;4680776;30;20031;-83
2021/12/17 16:22:51;;;;;;;24.58;11.68;;;7.80;92.80;;;;;;4701326;30;20262;-83
2021/12/17 16:25:17;;;;;;;29.67;12.25;;;7.80;92.80;;;;;;4686366;30;20096;-82
2021/12/17 16:27:43;;;;;;;25.95;11.77;;;7.80;92.90;;;;;;4688876;30;20241;-82
2021/12/17 16:30:09;;;;;;;23.10;11.05;;;7.70;93.10;;;;;;4691616;30;20050;-83
2021/12/17 16:32:36;;;;;;;22.30;10.97;;;7.70;93.30;;;;;;4677721;30;20046;-82
2021/12/17 16:35:02;;;;;;;25.13;10.85;;;7.60;93.40;;;;;;4691947;30;20544;-83
2021/12/17 16:37:28;;;;;;;20.55;10.95;;;7.60;93.50;;;;;;4692155;30;20038;-82
2021/12/17 16:39:54;;;;;;;25.38;10.63;;;7.60;93.50;;;;;;4653085;30;20037;-82
2021/12/17 16:42:20;;;;;;;23.35;10.30;;;7.60;93.60;;;;;;4684638;30;20041;-83
2021/12/17 16:47:34;;;;;;;26.88;10.27;;;7.60;93.60;;;;;;4699670;30;20066;-83
2021/12/17 16:50:00;;;;;;;24.05;11.38;;;7.60;93.60;;;;;;4687594;30;20037;-82
2021/12/17 16:52:28;;;;;;;28.97;11.20;;;7.60;93.50;;;;;;4656130;30;20057;-83
2021/12/17 16:54:56;;;;;;;26.00;10.77;;;7.60;93.50;;;;;;4684976;30;20383;-83
2021/12/17 16:57:22;;;;;;;25.17;11.50;;;7.60;93.40;;;;;;4692664;30;20029;-83
2021/12/17 16:59:48;;;;;;;30.17;11.13;;;7.60;93.30;;;;;;4694491;30;20130;-83
2021/12/17 17:02:14;;;;;;;25.75;10.70;;;7.60;92.90;;;;;;4679231;30;20034;-83
2021/12/17 17:04:40;;;;;;;22.05;10.82;;;7.60;93.10;;;;;;4692226;30;20041;-83
2021/12/17 17:07:06;;;;;;;21.38;10.02;;;7.60;92.80;;;;;;4694199;30;20049;-83
2021/12/17 17:09:33;;;;;;;23.98;11.15;;;7.60;92.60;;;;;;4693819;30;20061;-83
2021/12/17 17:12:04;;;;;;;21.17;9.95;;;7.70;92.60;;;;;;4665780;30;20131;-83
2021/12/17 17:14:32;;;;;;;25.15;10.18;;;7.70;92.60;;;;;;4675697;30;20117;-83
2021/12/17 17:16:59;;;;;;;32.30;12.70;;;7.70;92.50;;;;;;4690476;30;20045;-83
2021/12/17 17:19:25;;;;;;;25.65;11.25;;;7.70;92.50;;;;;;4665819;30;20042;-83
2021/12/17 17:21:53;;;;;;;18.90;10.63;;;7.60;92.60;;;;;;4693226;30;20049;-82
2021/12/17 17:24:19;;;;;;;24.75;11.20;;;7.60;92.70;;;;;;4691237;30;20064;-83
2021/12/17 17:26:46;;;;;;;21.83;10.93;;;7.50;92.60;;;;;;4684857;30;20046;-83
2021/12/17 17:29:13;;;;;;;26.90;10.82;;;7.50;92.70;;;;;;4664928;30;20097;-83
2021/12/17 17:31:39;;;;;;;22.90;11.07;;;7.40;92.80;;;;;;4707335;30;20033;-83
2021/12/17 17:34:08;;;;;;;20.50;10.75;;;7.40;93.20;;;;;;4678830;30;20037;-83
2021/12/17 17:36:35;;;;;;;24.25;10.55;;;7.40;93.00;;;;;;4691044;30;20042;-83
2021/12/17 17:39:01;;;;;;;;;;;7.30;93.10;;;;;;4692465;30;20112;-83
2021/12/17 17:41:27;;;;;;;24.90;11.30;;;7.40;93.10;;;;;;4688689;30;19915;-82
2021/12/17 17:43:55;;;;;;;25.98;11.20;;;7.30;93.20;;;;;;4689816;30;20303;-82
2021/12/17 17:48:38;;;;;;;27.55;10.90;;;7.20;93.30;;;;;;5091257;28;20390;-84
2021/12/17 17:51:04;;;;;;;26.25;11.32;;;7.10;93.60;;;;;;5041398;28;20026;-82
2021/12/17 17:53:30;;;;;;;27.40;11.27;;;7.10;93.70;;;;;;5020463;28;20031;-82
2021/12/17 17:55:56;;;;;;;24.33;11.23;;;7.00;93.80;;;;;;5027753;28;20022;-82
2021/12/17 17:58:22;;;;;;;22.55;11.55;;;7.00;93.90;;;;;;5027351;28;20047;-82
2021/12/17 18:00:48;;;;;;;23.83;11.88;;;6.90;94.10;;;;;;5010856;28;20029;-82
2021/12/17 18:03:15;;;;;;;31.00;12.65;;;7.00;94.20;;;;;;5038602;28;20018;-82
2021/12/17 18:05:42;;;;;;;;;;;6.90;94.30;;;;;;5042171;28;20096;-82
2021/12/17 18:08:09;;;;;;;24.15;11.38;;;6.90;94.30;;;;;;5030843;28;19909;-82
2021/12/17 18:10:35;;;;;;;22.20;11.30;;;6.80;94.40;;;;;;5010597;28;20030;-82
2021/12/17 18:13:05;;;;;;;29.65;11.35;;;6.80;94.40;;;;;;5024259;28;20213;-81
2021/12/17 18:15:33;;;;;;;20.95;10.18;;;6.80;94.30;;;;;;5049869;28;20116;-82
2021/12/17 18:17:58;;;;;;;15.68;9.55;;;6.80;94.30;;;;;;5020598;28;20213;-82
2021/12/17 18:20:25;;;;;;;23.70;10.50;;;6.80;94.20;;;;;;5025159;28;20041;-83
2021/12/17 18:22:52;;;;;;;;;;;6.70;94.10;;;;;;5026428;28;20368;-81
2021/12/17 18:25:19;;;;;;;21.58;8.77;;;6.60;93.90;;;;;;5027598;28;19913;-82
2021/12/17 18:27:45;;;;;;;;;;;6.60;93.90;;;;;;5046766;28;20036;-82
2021/12/17 18:30:15;;;;;;;21.57;9.03;;;6.60;93.90;;;;;;5042320;28;19905;-83
2021/12/17 18:32:43;;;;;;;15.00;7.18;;;6.50;93.90;;;;;;5044940;28;20024;-82
2021/12/17 18:35:10;;;;;;;17.73;7.10;;;6.50;93.90;;;;;;5042983;28;20026;-82
2021/12/17 18:37:37;;;;;;;23.55;8.13;;;6.50;93.90;;;;;;5027601;28;20026;-82
2021/12/17 18:40:07;;;;;;;13.55;7.00;;;6.50;94.00;;;;;;5037801;28;20029;-82
2021/12/17 18:45:18;;;;;;;11.48;6.78;;;6.40;94.10;;;;;;5023895;28;20033;-83
2021/12/17 18:47:44;;;;;;;14.80;6.93;;;6.40;94.10;;;;;;4975022;28;20084;-83
2021/12/17 18:50:10;;;;;;;17.15;7.53;;;6.40;94.10;;;;;;4976211;28;20334;-82
2021/12/17 18:52:36;;;;;;;17.77;8.00;;;6.40;94.20;;;;;;5027429;28;20030;-83
2021/12/17 18:55:02;;;;;;;16.38;7.80;;;6.40;94.30;;;;;;5025258;28;20283;-82